Time;durP1;ratioP1;P1;durP2;ratioP2;P2;SDS_P1;SDS_P2;PMS_P1;PMS_P2;Temp;Humidity;BMP_temperature;BMP_pressure;BME280_temperature;BME280_humidity;BME280_pressure;Samples;Min_cycle;Max_cycle;Signal;HPM_P1;HPM_P2
2021/08/13 00:01:09;;;;;;;7.80;7.10;;;;;;;20.40;73.49;100870.19;5049860;28;20250;-79
2021/08/13 00:03:36;;;;;;;7.67;6.47;;;;;;;20.47;73.26;100868.91;5049690;28;20233;-79
2021/08/13 00:06:02;;;;;;;10.17;6.17;;;;;;;20.40;71.83;100933.84;5049696;28;20210;-79
2021/08/13 00:08:30;;;;;;;7.20;6.07;;;;;;;20.40;71.15;100961.22;5049700;28;20752;-79
2021/08/13 00:10:57;;;;;;;8.47;6.70;;;;;;;20.48;72.13;100925.50;5049945;28;20209;-79
2021/08/13 00:13:23;;;;;;;7.13;6.37;;;;;;;20.49;72.17;100920.06;5049499;28;20224;-79
2021/08/13 00:15:49;;;;;;;7.20;6.70;;;;;;;20.49;71.50;100953.72;5049687;28;20821;-79
2021/08/13 00:18:16;;;;;;;16.77;7.03;;;;;;;20.39;72.00;100934.75;5049448;28;20242;-79
2021/08/13 00:20:42;;;;;;;6.43;5.83;;;;;;;20.28;70.75;100995.44;5049704;28;20258;-79
2021/08/13 00:23:09;;;;;;;5.83;5.33;;;;;;;20.13;69.18;101034.19;5051037;28;20233;-79
2021/08/13 00:25:37;;;;;;;7.10;6.40;;;;;;;20.03;71.86;100971.03;5050459;28;20265;-80
2021/08/13 00:28:04;;;;;;;6.43;5.67;;;;;;;19.73;71.51;100970.75;5050056;28;20212;-79
2021/08/13 00:30:30;;;;;;;7.00;6.40;;;;;;;19.57;72.58;100949.41;5050185;28;20216;-79
2021/08/13 00:32:57;;;;;;;6.73;6.27;;;;;;;19.38;74.15;100887.69;5049588;28;20641;-79
2021/08/13 00:35:23;;;;;;;9.60;6.57;;;;;;;19.11;76.93;100789.28;5049335;28;20698;-80
2021/08/13 00:37:50;;;;;;;6.87;6.37;;;;;;;18.92;77.19;100778.78;5049405;28;20232;-79
2021/08/13 00:40:16;;;;;;;7.20;6.50;;;;;;;18.76;77.91;100765.38;5049710;28;20234;-79
2021/08/13 00:42:44;;;;;;;6.53;5.80;;;;;;;18.63;78.19;100746.59;5048543;28;20248;-80
2021/08/13 00:45:12;;;;;;;8.03;7.27;;;;;;;18.57;78.05;100768.03;5049136;28;20674;-79
2021/08/13 00:47:38;;;;;;;11.07;6.67;;;;;;;18.61;78.08;100786.34;5049828;28;20211;-79
2021/08/13 00:50:06;;;;;;;7.37;6.73;;;;;;;18.66;77.82;100786.97;5049704;28;20254;-78
2021/08/13 00:52:32;;;;;;;7.00;6.40;;;;;;;18.65;78.30;100776.47;5049435;28;20211;-79
2021/08/13 00:54:59;;;;;;;9.20;7.37;;;;;;;18.71;78.21;100785.91;5049767;28;20257;-78
2021/08/13 00:57:26;;;;;;;6.83;6.23;;;;;;;18.75;78.85;100751.31;5049365;28;20232;-79
2021/08/13 00:59:54;;;;;;;6.70;6.20;;;;;;;18.81;79.03;100766.03;5049094;28;20590;-79
2021/08/13 01:02:21;;;;;;;6.80;6.13;;;;;;;18.80;79.89;100720.22;5049877;28;20306;-79
2021/08/13 01:04:47;;;;;;;8.23;6.30;;;;;;;18.79;80.73;100691.16;5049391;28;20204;-79
2021/08/13 01:07:14;;;;;;;6.83;6.10;;;;;;;18.83;80.70;100680.41;5049355;28;20289;-79
2021/08/13 01:09:41;;;;;;;6.80;6.07;;;;;;;18.87;80.13;100693.47;5049307;28;20572;-79
2021/08/13 01:12:16;;;;;;;6.03;5.47;;;;;;;18.90;79.72;100703.91;5049710;28;20204;-79
2021/08/13 01:14:52;;;;;;;7.17;6.00;;;;;;;18.99;79.90;100701.69;5049944;28;20272;-79
2021/08/13 01:17:22;;;;;;;8.73;6.37;;;;;;;19.14;79.26;100718.56;5049654;28;21041;-79
2021/08/13 01:20:01;;;;;;;5.97;5.47;;;;;;;19.26;78.49;100743.56;5048628;28;20266;-79
2021/08/13 01:22:34;;;;;;;6.37;5.77;;;;;;;19.38;77.56;100779.13;5048052;28;20282;-79
2021/08/13 01:25:04;;;;;;;7.00;6.00;;;;;;;19.47;77.66;100775.19;5048277;28;20711;-79
2021/08/13 01:27:34;;;;;;;7.37;6.13;;;;;;;19.51;77.44;100788.19;5048082;28;20213;-79
2021/08/13 01:30:04;;;;;;;7.03;6.43;;;;;;;19.57;77.04;100803.75;5048339;28;20214;-80
2021/08/13 01:32:38;;;;;;;7.07;6.47;;;;;;;19.59;76.12;100827.53;5047995;28;20221;-78
2021/08/13 01:35:08;;;;;;;6.87;6.03;;;;;;;19.61;75.94;100841.53;5048583;28;20204;-79
2021/08/13 01:37:37;;;;;;;6.47;5.97;;;;;;;19.62;76.02;100841.47;5048454;28;20236;-79
2021/08/13 01:40:05;;;;;;;7.07;6.47;;;;;;;19.64;75.82;100841.38;5049095;28;20209;-79
2021/08/13 01:42:33;;;;;;;7.60;6.20;;;;;;;19.63;75.57;100850.28;5048272;28;20218;-79
2021/08/13 01:45:01;;;;;;;6.73;6.00;;;;;;;19.66;75.64;100850.09;5048503;28;20213;-79
2021/08/13 01:47:29;;;;;;;7.23;6.50;;;;;;;19.68;75.37;100852.69;5050617;28;20209;-79
2021/08/13 01:49:57;;;;;;;6.53;6.03;;;;;;;19.70;75.21;100858.75;5052749;28;20259;-79
2021/08/13 01:52:25;;;;;;;8.90;6.70;;;;;;;19.73;75.14;100869.25;5052343;28;20216;-79
2021/08/13 01:54:53;;;;;;;6.97;6.37;;;;;;;19.68;74.08;100914.44;5052239;28;20205;-79
2021/08/13 01:57:22;;;;;;;11.20;7.10;;;;;;;19.52;75.33;100876.41;5052683;28;20232;-79
2021/08/13 01:59:50;;;;;;;10.37;6.63;;;;;;;19.52;75.64;100857.88;5051526;28;20215;-79
2021/08/13 02:02:17;;;;;;;7.33;6.63;;;;;;;19.57;75.41;100858.53;5051021;28;20206;-78
2021/08/13 02:04:44;;;;;;;7.00;6.50;;;;;;;19.61;75.24;100873.31;5051886;28;20205;-79
2021/08/13 02:07:13;;;;;;;7.23;6.70;;;;;;;19.43;71.39;100992.44;5051559;28;20236;-79
2021/08/13 02:09:40;;;;;;;6.90;6.40;;;;;;;19.25;71.74;101017.13;5052473;28;20213;-79
2021/08/13 02:12:07;;;;;;;9.83;6.67;;;;;;;19.14;73.94;100932.06;5051424;28;20216;-79
2021/08/13 02:14:34;;;;;;;8.00;7.37;;;;;;;19.09;74.78;100899.66;5051476;28;20722;-81
2021/08/13 02:17:03;;;;;;;7.97;7.13;;;;;;;19.19;75.31;100869.19;5052453;28;20240;-79
2021/08/13 02:19:33;;;;;;;7.93;7.20;;;;;;;19.21;76.00;100839.06;5052416;28;20221;-79
2021/08/13 02:22:01;;;;;;;7.13;6.63;;;;;;;19.23;76.07;100844.31;5051390;28;20303;-78
2021/08/13 02:24:29;;;;;;;7.90;6.10;;;;;;;19.20;76.15;100847.94;5051844;28;20699;-79
2021/08/13 02:26:55;;;;;;;7.97;6.20;;;;;;;19.19;75.92;100848.88;5051388;28;20262;-80
2021/08/13 02:29:22;;;;;;;6.77;6.03;;;;;;;19.15;75.55;100871.13;5051194;28;20673;-78
2021/08/13 02:31:49;;;;;;;6.73;6.27;;;;;;;19.09;75.53;100868.78;5051761;28;20228;-78
2021/08/13 02:34:15;;;;;;;7.80;6.87;;;;;;;19.06;75.41;100887.44;5050803;28;20622;-79
2021/08/13 02:36:49;;;;;;;7.80;7.03;;;;;;;19.02;75.45;100875.28;5050254;28;20207;-79
2021/08/13 02:39:20;;;;;;;14.03;6.57;;;;;;;18.99;76.21;100841.06;5050599;28;20611;-79
2021/08/13 02:41:49;;;;;;;7.73;7.03;;;;;;;18.94;76.32;100835.09;5050342;28;20744;-79
2021/08/13 02:44:20;;;;;;;7.50;6.60;;;;;;;18.92;76.58;100832.53;5049999;28;20631;-79
2021/08/13 02:46:52;;;;;;;7.57;7.07;;;;;;;18.92;76.47;100840.47;5050519;28;20209;-79
2021/08/13 02:49:19;;;;;;;8.10;6.27;;;;;;;18.92;76.63;100840.47;5050589;28;20289;-78
2021/08/13 02:51:47;;;;;;;6.77;6.10;;;;;;;18.91;76.31;100856.41;5049992;28;20247;-78
2021/08/13 02:54:21;;;;;;;7.23;6.53;;;;;;;18.87;76.54;100847.78;5049630;28;20254;-79
2021/08/13 02:56:52;;;;;;;7.90;7.10;;;;;;;18.86;77.07;100824.88;5050176;28;20205;-79
2021/08/13 02:59:20;;;;;;;10.33;6.67;;;;;;;18.81;77.68;100809.25;5048498;28;20211;-78
2021/08/13 03:01:48;;;;;;;7.80;6.37;;;;;;;18.75;77.76;100804.22;5049589;28;20208;-79
2021/08/13 03:04:15;;;;;;;7.50;6.90;;;;;;;18.76;76.74;100832.34;5049197;28;20636;-79
2021/08/13 03:06:44;;;;;;;6.93;6.33;;;;;;;18.63;75.73;100879.69;5050632;28;20278;-79
2021/08/13 03:09:11;;;;;;;7.70;7.00;;;;;;;18.48;76.13;100875.09;5051109;28;20441;-79
2021/08/13 03:11:40;;;;;;;7.60;6.90;;;;;;;18.53;76.87;100838.72;5050451;28;20217;-79
2021/08/13 03:14:10;;;;;;;6.80;6.30;;;;;;;18.58;77.08;100818.22;5050908;28;20302;-80
2021/08/13 03:16:38;;;;;;;7.00;6.50;;;;;;;18.61;76.87;100822.47;5050641;28;20619;-79
2021/08/13 03:19:05;;;;;;;7.07;6.57;;;;;;;18.50;77.55;100801.84;5050652;28;20698;-79
2021/08/13 03:21:32;;;;;;;6.37;5.97;;;;;;;18.53;76.99;100808.78;5049907;28;20217;-79
2021/08/13 03:24:00;;;;;;;7.83;7.13;;;;;;;18.55;76.61;100830.72;5049925;28;20230;-79
2021/08/13 03:26:27;;;;;;;7.80;7.10;;;;;;;18.51;77.40;100805.34;5050593;28;20216;-78
2021/08/13 03:28:54;;;;;;;7.40;6.90;;;;;;;18.50;77.65;100803.63;5050585;28;20247;-79
2021/08/13 03:31:36;;;;;;;7.27;6.57;;;;;;;17.80;78.56;100788.19;5050334;28;20211;-80
2021/08/13 03:34:05;;;;;;;7.33;6.63;;;;;;;17.88;78.86;100765.88;5049789;28;20235;-78
2021/08/13 03:36:31;;;;;;;7.67;7.07;;;;;;;17.99;79.41;100734.59;5050387;28;20209;-79
2021/08/13 03:38:58;;;;;;;7.47;6.53;;;;;;;18.05;79.57;100740.44;5050190;28;20274;-79
2021/08/13 03:41:24;;;;;;;8.33;7.47;;;;;;;18.13;79.88;100741.88;5049863;28;20216;-79
2021/08/13 03:43:51;;;;;;;7.50;6.90;;;;;;;18.12;80.14;100727.81;5049662;28;20792;-78
2021/08/13 03:46:17;;;;;;;7.30;6.63;;;;;;;18.15;79.88;100727.66;5049579;28;20630;-78
2021/08/13 03:48:45;;;;;;;6.70;6.10;;;;;;;18.15;79.89;100734.75;5049599;28;20694;-78
2021/08/13 03:51:12;;;;;;;7.30;6.40;;;;;;;18.17;79.66;100738.19;5049790;28;20680;-79
2021/08/13 03:53:38;;;;;;;7.00;6.33;;;;;;;18.20;80.00;100738.06;5049751;28;20233;-79
2021/08/13 03:56:05;;;;;;;7.80;6.77;;;;;;;18.16;80.15;100728.56;5049738;28;20215;-79
2021/08/13 03:58:32;;;;;;;6.90;6.37;;;;;;;18.20;79.84;100744.19;5049394;28;20235;-79
2021/08/13 04:00:58;;;;;;;6.97;6.37;;;;;;;18.17;79.67;100751.38;5049813;28;20222;-79
2021/08/13 04:03:25;;;;;;;7.03;6.43;;;;;;;17.95;80.50;100722.44;5049819;28;20278;-79
2021/08/13 04:05:52;;;;;;;7.20;6.57;;;;;;;17.75;79.46;100753.19;5049662;28;20220;-79
2021/08/13 04:08:19;;;;;;;7.73;7.03;;;;;;;17.83;79.44;100756.38;5049682;28;20200;-79
2021/08/13 04:10:45;;;;;;;7.10;6.40;;;;;;;17.96;79.52;100769.94;5049707;28;20207;-79
2021/08/13 04:13:12;;;;;;;7.63;6.90;;;;;;;18.03;79.83;100742.28;5049366;28;20221;-79
2021/08/13 04:15:40;;;;;;;7.03;6.43;;;;;;;18.05;79.93;100747.50;5049718;28;20216;-79
2021/08/13 04:18:06;;;;;;;6.70;6.17;;;;;;;18.08;79.89;100752.66;5049798;28;20229;-79
2021/08/13 04:20:33;;;;;;;7.50;6.80;;;;;;;18.12;79.91;100758.69;5049492;28;20213;-79
2021/08/13 04:23:01;;;;;;;6.30;5.70;;;;;;;18.16;79.66;100754.97;5049439;28;20231;-79
2021/08/13 04:25:27;;;;;;;6.87;6.27;;;;;;;18.16;80.13;100745.25;5049298;28;20546;-79
2021/08/13 04:27:53;;;;;;;6.97;6.37;;;;;;;18.19;80.15;100750.38;5049206;28;20237;-79
2021/08/13 04:30:20;;;;;;;7.03;6.40;;;;;;;18.23;80.02;100749.31;5051346;28;20212;-80
2021/08/13 04:32:47;;;;;;;7.40;6.80;;;;;;;18.25;80.23;100730.75;5050779;28;20228;-80
2021/08/13 04:35:13;;;;;;;6.77;6.37;;;;;;;18.21;80.12;100729.19;5050534;28;20562;-79
2021/08/13 04:37:40;;;;;;;7.50;6.77;;;;;;;18.16;80.68;100725.91;5051058;28;20213;-79
2021/08/13 04:40:09;;;;;;;6.87;6.43;;;;;;;18.15;80.46;100725.03;5050560;28;20208;-79
2021/08/13 04:42:36;;;;;;;7.30;6.70;;;;;;;18.16;79.80;100754.97;5049863;28;20298;-79
2021/08/13 04:45:02;;;;;;;7.77;6.97;;;;;;;18.13;80.19;100742.72;5050667;28;20230;-79
2021/08/13 04:47:29;;;;;;;6.70;6.20;;;;;;;18.20;80.32;100738.06;5051228;28;20258;-79
2021/08/13 04:49:56;;;;;;;6.83;6.33;;;;;;;18.28;79.96;100756.19;5051200;28;20295;-79
2021/08/13 04:52:22;;;;;;;7.03;6.43;;;;;;;18.24;80.43;100735.19;5050774;28;20230;-80
2021/08/13 04:54:49;;;;;;;6.70;6.30;;;;;;;18.26;80.61;100735.13;5050443;28;20208;-79
2021/08/13 04:57:17;;;;;;;7.33;6.80;;;;;;;18.26;80.48;100722.75;5050594;28;20200;-78
2021/08/13 04:59:43;;;;;;;7.20;6.60;;;;;;;18.28;80.41;100732.41;5050650;28;20747;-79
2021/08/13 05:02:09;;;;;;;7.60;6.90;;;;;;;18.31;80.80;100721.69;5050791;28;20206;-79
2021/08/13 05:04:36;;;;;;;7.73;7.03;;;;;;;18.29;81.09;100719.09;5051082;28;20244;-79
2021/08/13 05:07:03;;;;;;;6.70;6.13;;;;;;;18.34;79.85;100763.84;5051336;28;20211;-81
2021/08/13 05:09:29;;;;;;;7.93;7.23;;;;;;;18.34;80.27;100756.75;5050765;28;20606;-79
2021/08/13 05:11:55;;;;;;;7.37;6.87;;;;;;;18.33;80.79;100733.03;5051117;28;20616;-78
2021/08/13 05:14:23;;;;;;;6.47;5.97;;;;;;;18.35;80.21;100745.25;5051130;28;20699;-79
2021/08/13 05:16:50;;;;;;;7.07;6.53;;;;;;;18.34;80.78;100734.78;5051012;28;20216;-79
2021/08/13 05:19:16;;;;;;;7.63;6.37;;;;;;;18.41;81.05;100726.47;5050943;28;20694;-79
2021/08/13 05:21:42;;;;;;;7.33;6.67;;;;;;;18.44;80.99;100738.69;5052263;28;20209;-79
2021/08/13 05:24:09;;;;;;;7.30;6.70;;;;;;;18.46;80.66;100744.75;5055295;28;20286;-79
2021/08/13 05:26:35;;;;;;;7.53;6.90;;;;;;;18.54;80.70;100737.31;5054604;28;20621;-79
2021/08/13 05:29:02;;;;;;;8.03;7.33;;;;;;;18.43;79.68;100773.97;5054326;28;20206;-79
2021/08/13 05:31:30;;;;;;;7.10;6.60;;;;;;;18.52;79.93;100780.63;5055288;28;20226;-80
2021/08/13 05:33:56;;;;;;;6.97;6.40;;;;;;;18.55;79.38;100786.63;5054835;28;20733;-79
2021/08/13 05:36:23;;;;;;;7.37;6.70;;;;;;;18.65;79.62;100784.38;5055231;28;20206;-79
2021/08/13 05:38:49;;;;;;;6.67;6.27;;;;;;;18.71;80.01;100762.09;5054346;28;20289;-79
2021/08/13 05:41:15;;;;;;;6.57;6.07;;;;;;;18.75;80.50;100753.09;5055029;28;20221;-80
2021/08/13 05:43:42;;;;;;;7.83;7.13;;;;;;;18.64;80.18;100765.03;5054395;28;20286;-79
2021/08/13 05:46:10;;;;;;;7.63;7.03;;;;;;;18.66;80.19;100765.81;5051910;28;20661;-79
2021/08/13 05:48:37;;;;;;;9.13;7.40;;;;;;;18.43;79.23;100810.97;5052151;28;20208;-79
2021/08/13 05:51:04;;;;;;;8.43;7.63;;;;;;;18.47;79.55;100791.41;5052208;28;20223;-79
2021/08/13 05:53:30;;;;;;;7.77;7.27;;;;;;;18.43;79.47;100800.41;5051852;28;20239;-79
2021/08/13 05:55:57;;;;;;;6.90;6.37;;;;;;;18.53;79.75;100791.16;5052228;28;20622;-79
2021/08/13 05:58:23;;;;;;;7.77;7.27;;;;;;;18.36;79.61;100797.19;5051918;28;20305;-81
2021/08/13 06:00:49;;;;;;;7.77;7.07;;;;;;;18.22;80.48;100763.47;5051843;28;20216;-82
2021/08/13 06:03:16;;;;;;;8.07;6.80;;;;;;;18.34;80.70;100761.19;5051984;28;20227;-79
2021/08/13 06:05:44;;;;;;;7.83;7.20;;;;;;;18.33;80.63;100762.09;5053103;28;20685;-79
2021/08/13 06:08:10;;;;;;;12.97;7.43;;;;;;;18.42;80.62;100753.75;5051922;28;20732;-78
2021/08/13 06:10:37;;;;;;;7.47;6.87;;;;;;;18.44;81.27;100746.63;5052226;28;20215;-78
2021/08/13 06:13:03;;;;;;;8.17;7.17;;;;;;;18.53;81.38;100740.03;5051623;28;20229;-79
2021/08/13 06:15:30;;;;;;;7.77;6.97;;;;;;;18.61;81.37;100729.94;5052273;28;20224;-78
2021/08/13 06:17:57;;;;;;;9.10;7.10;;;;;;;18.59;81.51;100726.50;5051711;28;20218;-78
2021/08/13 06:20:25;;;;;;;7.87;6.57;;;;;;;18.51;82.17;100713.66;5051774;28;20212;-79
2021/08/13 06:22:52;;;;;;;7.40;6.90;;;;;;;18.51;82.42;100695.16;5051298;28;20236;-79
2021/08/13 06:25:19;;;;;;;8.03;7.30;;;;;;;18.51;83.02;100692.50;5051773;28;20196;-79
2021/08/13 06:27:46;;;;;;;8.60;7.80;;;;;;;18.50;83.60;100672.31;5051299;28;20216;-79
2021/08/13 06:30:17;;;;;;;9.07;8.37;;;;;;;18.59;83.45;100668.34;5051816;28;20203;-79
2021/08/13 06:32:43;;;;;;;9.27;8.60;;;;;;;18.70;82.18;100707.50;5051434;28;20222;-79
2021/08/13 06:35:11;;;;;;;8.30;6.83;;;;;;;18.96;83.06;100693.88;5051454;28;20637;-78
2021/08/13 06:37:44;;;;;;;8.20;7.60;;;;;;;19.12;82.78;100696.59;5051043;28;20206;-79
2021/08/13 06:40:13;;;;;;;12.90;7.70;;;;;;;19.25;82.28;100716.22;5051622;28;20225;-79
2021/08/13 06:42:39;;;;;;;8.23;7.50;;;;;;;19.44;81.85;100720.59;5050482;28;20240;-80
2021/08/13 06:45:07;;;;;;;9.60;7.23;;;;;;;19.52;81.97;100730.78;5051257;28;20208;-79
2021/08/13 06:47:33;;;;;;;8.47;7.77;;;;;;;19.50;81.14;100752.03;5050303;28;20212;-80
2021/08/13 06:49:59;;;;;;;8.93;8.03;;;;;;;19.59;82.18;100718.94;5050491;28;20266;-80
2021/08/13 06:52:26;;;;;;;7.93;7.13;;;;;;;19.79;82.12;100710.84;5050975;28;20605;-80
2021/08/13 06:54:52;;;;;;;8.70;6.70;;;;;;;19.78;81.69;100727.69;5051239;28;20290;-81
2021/08/13 06:57:20;;;;;;;7.13;6.63;;;;;;;19.77;82.12;100722.47;5052411;28;20205;-81
2021/08/13 06:59:46;;;;;;;7.67;7.07;;;;;;;19.70;82.64;100715.72;5051795;28;20299;-80
2021/08/13 07:02:13;;;;;;;7.87;7.20;;;;;;;19.76;82.13;100731.31;5051497;28;20217;-80
2021/08/13 07:04:39;;;;;;;8.57;7.87;;;;;;;19.82;77.45;100855.50;5050169;28;20239;-80
2021/08/13 07:07:06;;;;;;;8.77;7.40;;;;;;;20.09;76.00;100934.56;5049455;28;20291;-80
2021/08/13 07:09:32;;;;;;;8.60;7.90;;;;;;;20.27;75.28;100968.06;5050367;28;21166;-80
2021/08/13 07:11:59;;;;;;;10.20;6.80;;;;;;;20.36;76.71;100919.88;5050630;28;20201;-81
2021/08/13 07:14:26;;;;;;;7.10;6.50;;;;;;;20.36;78.28;100850.94;5051044;28;20228;-81
2021/08/13 07:16:53;;;;;;;8.70;7.97;;;;;;;20.38;75.74;100946.31;5049970;28;20209;-80
2021/08/13 07:19:19;;;;;;;9.10;8.23;;;;;;;20.60;72.97;101062.81;5049703;28;20221;-80
2021/08/13 07:21:46;;;;;;;11.23;7.37;;;;;;;20.82;72.20;101097.91;5049294;28;20208;-80
2021/08/13 07:24:12;;;;;;;8.17;7.50;;;;;;;20.99;71.79;101099.69;5049619;28;20240;-80
2021/08/13 07:26:38;;;;;;;8.67;7.97;;;;;;;21.12;71.86;101091.94;5049467;28;20694;-80
2021/08/13 07:29:05;;;;;;;8.17;7.40;;;;;;;21.14;72.28;101044.91;5048766;28;20286;-80
2021/08/13 07:31:33;;;;;;;8.20;7.40;;;;;;;21.16;73.51;101071.41;5049249;28;20298;-80
2021/08/13 07:33:59;;;;;;;7.77;7.07;;;;;;;21.12;72.93;101052.13;5049096;28;20788;-80
2021/08/13 07:36:25;;;;;;;7.07;6.40;;;;;;;21.11;73.76;101033.59;5049669;28;20287;-80
2021/08/13 07:38:52;;;;;;;7.80;7.20;;;;;;;21.14;72.91;101021.03;5049565;28;20274;-80
2021/08/13 07:41:19;;;;;;;9.47;8.33;;;;;;;21.27;70.88;101118.59;5048840;28;20214;-80
2021/08/13 07:43:46;;;;;;;9.83;8.27;;;;;;;21.36;69.85;101132.25;5048548;28;20665;-81
2021/08/13 07:46:12;;;;;;;8.13;7.33;;;;;;;21.52;69.68;101136.78;5049826;28;20267;-80
2021/08/13 07:48:40;;;;;;;7.47;6.77;;;;;;;21.68;69.20;101185.50;5048558;28;20216;-80
2021/08/13 07:51:06;;;;;;;8.73;7.93;;;;;;;21.82;67.52;101243.25;5049939;28;20546;-81
2021/08/13 07:53:33;;;;;;;7.70;7.10;;;;;;;21.90;67.84;101225.09;5049027;28;20252;-80
2021/08/13 07:55:59;;;;;;;8.20;7.40;;;;;;;21.91;68.23;101176.31;5048810;28;20237;-80
2021/08/13 07:58:26;;;;;;;6.77;6.33;;;;;;;21.94;70.04;101160.19;5048774;28;20259;-80
2021/08/13 08:00:53;;;;;;;7.20;6.70;;;;;;;22.16;65.49;101342.47;5048780;28;20225;-80
2021/08/13 08:03:19;;;;;;;8.03;7.33;;;;;;;22.24;64.92;101350.97;5048354;28;20302;-80
2021/08/13 08:05:47;;;;;;;8.27;7.40;;;;;;;22.31;64.64;101378.94;5048663;28;20205;-80
2021/08/13 08:08:14;;;;;;;6.90;6.23;;;;;;;22.46;63.49;101414.53;5050239;28;20266;-81
2021/08/13 08:10:45;;;;;;;7.40;6.80;;;;;;;22.57;60.26;101534.53;5050582;28;20205;-80
2021/08/13 08:13:12;;;;;;;9.07;7.10;;;;;;;22.63;60.55;101497.91;5048974;28;20323;-80
2021/08/13 08:15:38;;;;;;;6.80;6.30;;;;;;;22.79;59.40;101594.66;5048275;28;20205;-80
2021/08/13 08:18:05;;;;;;;6.90;6.30;;;;;;;22.84;60.86;101536.72;5048455;28;20227;-80
2021/08/13 08:20:31;;;;;;;7.27;6.57;;;;;;;22.87;60.12;101536.53;5048545;28;20231;-80
2021/08/13 08:22:59;;;;;;;6.73;6.10;;;;;;;22.95;59.13;101592.06;5047617;28;20225;-80
2021/08/13 08:25:25;;;;;;;7.00;6.40;;;;;;;23.01;62.27;101461.22;5048773;28;20206;-80
2021/08/13 08:27:52;;;;;;;7.63;6.27;;;;;;;23.04;59.88;101567.63;5048098;28;20569;-80
2021/08/13 08:30:18;;;;;;;7.40;6.80;;;;;;;23.15;58.09;101641.63;5048780;28;20251;-80
2021/08/13 08:32:44;;;;;;;6.33;5.83;;;;;;;23.22;60.06;101546.28;5048108;28;20275;-80
2021/08/13 08:35:11;;;;;;;24.37;7.87;;;;;;;23.27;59.12;101606.38;5048686;28;21243;-80
2021/08/13 08:37:51;;;;;;;6.23;5.70;;;;;;;23.25;59.37;101556.75;5048646;28;20737;-80
2021/08/13 08:40:24;;;;;;;7.27;6.70;;;;;;;23.26;65.12;101340.88;5048107;28;20219;-80
2021/08/13 08:42:50;;;;;;;6.63;6.13;;;;;;;23.35;56.99;101660.13;5048253;28;20362;-80
2021/08/13 08:45:16;;;;;;;17.03;8.00;;;;;;;23.46;57.69;101640.88;5048473;28;20256;-81
2021/08/13 08:47:45;;;;;;;7.17;6.13;;;;;;;23.51;59.89;101579.34;5048349;28;20209;-80
2021/08/13 08:50:12;;;;;;;6.33;5.93;;;;;;;23.59;57.13;101628.59;5048536;28;20615;-80
2021/08/13 08:52:41;;;;;;;6.77;6.27;;;;;;;23.72;58.11;101590.59;5047387;28;20267;-80
2021/08/13 08:55:09;;;;;;;7.60;6.30;;;;;;;23.69;58.35;101561.47;5047718;28;20216;-80
2021/08/13 08:57:39;;;;;;;6.27;5.87;;;;;;;23.78;58.05;101619.63;5051877;28;20720;-82
2021/08/13 09:00:07;;;;;;;6.13;5.63;;;;;;;23.89;56.06;101702.56;5054239;28;20227;-81
2021/08/13 09:02:33;;;;;;;7.63;6.20;;;;;;;23.94;55.51;101713.84;5052085;28;20586;-80
2021/08/13 09:05:00;;;;;;;6.17;5.67;;;;;;;24.09;55.91;101682.78;5053307;28;20540;-81
2021/08/13 09:07:27;;;;;;;7.00;6.23;;;;;;;24.19;55.03;101696.47;5054367;28;20263;-81
2021/08/13 09:09:54;;;;;;;11.33;6.13;;;;;;;24.33;56.39;101701.88;5052131;28;20216;-81
2021/08/13 09:12:21;;;;;;;6.60;6.10;;;;;;;24.39;55.93;101688.19;5051394;28;20247;-80
2021/08/13 09:14:48;;;;;;;6.93;6.33;;;;;;;24.50;55.29;101700.03;5051154;28;20342;-81
2021/08/13 09:17:15;;;;;;;5.97;5.53;;;;;;;24.61;56.77;101654.09;5051384;28;20216;-81
2021/08/13 09:19:44;;;;;;;6.07;5.63;;;;;;;24.66;56.72;101630.63;5051612;28;20703;-81
2021/08/13 09:22:13;;;;;;;6.80;6.20;;;;;;;24.64;55.60;101660.13;5051050;28;20590;-80
2021/08/13 09:24:42;;;;;;;6.53;6.03;;;;;;;24.65;55.18;101693.84;5051702;28;20646;-81
2021/08/13 09:27:25;;;;;;;6.50;6.00;;;;;;;24.68;54.96;101685.69;5051795;28;20202;-80
2021/08/13 09:30:13;;;;;;;7.10;6.50;;;;;;;24.76;54.87;101685.25;5049926;28;20203;-81
2021/08/13 09:32:42;;;;;;;6.90;6.30;;;;;;;24.86;56.28;101643.66;5051070;28;20236;-80
2021/08/13 09:35:10;;;;;;;6.27;5.70;;;;;;;24.92;57.17;101544.47;5052155;28;20640;-81
2021/08/13 09:37:37;;;;;;;7.20;6.17;;;;;;;24.99;57.62;101593.00;5052936;28;20206;-81
2021/08/13 09:40:05;;;;;;;6.93;6.30;;;;;;;24.98;54.55;101690.16;5052930;28;20229;-81
2021/08/13 09:42:37;;;;;;;6.20;5.80;;;;;;;25.03;55.86;101593.69;5051359;28;20275;-81
2021/08/13 09:45:06;;;;;;;7.77;6.20;;;;;;;25.11;55.00;101703.63;5052360;28;20641;-81
2021/08/13 09:47:43;;;;;;;6.93;6.30;;;;;;;25.16;55.93;101579.47;5053117;28;20292;-81
2021/08/13 09:50:11;;;;;;;6.77;6.20;;;;;;;25.21;58.27;101570.31;5051827;28;20216;-81
2021/08/13 09:52:37;;;;;;;6.30;5.80;;;;;;;25.26;55.09;101678.69;5052407;28;20229;-81
2021/08/13 09:55:13;;;;;;;5.97;5.57;;;;;;;25.32;58.03;101519.75;5051980;28;20301;-81
2021/08/13 09:57:41;;;;;;;6.67;6.07;;;;;;;25.42;56.12;101626.97;5052514;28;20205;-81
2021/08/13 10:00:09;;;;;;;6.50;6.00;;;;;;;25.48;50.82;101832.44;5051858;28;20623;-80
2021/08/13 10:02:38;;;;;;;6.70;6.17;;;;;;;25.62;52.09;101829.81;5050747;28;20261;-80
2021/08/13 10:05:18;;;;;;;6.93;6.23;;;;;;;25.74;50.99;101837.06;5051180;28;20213;-81
2021/08/13 10:07:49;;;;;;;5.67;5.27;;;;;;;25.79;50.41;101844.84;5050969;28;20206;-81
2021/08/13 10:10:16;;;;;;;6.43;5.90;;;;;;;25.83;49.01;101897.19;5052308;28;20233;-82
2021/08/13 10:12:45;;;;;;;7.17;6.67;;;;;;;25.90;50.01;101893.22;5050786;28;20283;-83
2021/08/13 10:15:28;;;;;;;10.33;6.40;;;;;;;26.07;50.67;101827.97;5052473;28;20198;-83
2021/08/13 10:17:55;;;;;;;6.63;6.13;;;;;;;26.06;49.41;101894.97;5052968;28;20207;-82
2021/08/13 10:20:23;;;;;;;7.03;6.53;;;;;;;26.04;48.01;101926.31;5053029;28;20221;-84
2021/08/13 10:22:50;;;;;;;7.20;6.60;;;;;;;26.07;49.40;101904.72;5053314;28;20227;-84
2021/08/13 10:25:17;;;;;;;6.80;6.27;;;;;;;26.14;50.40;101841.81;5053499;28;20232;-82
2021/08/13 10:27:44;;;;;;;6.53;6.03;;;;;;;26.25;51.31;101788.47;5052052;28;20213;-82
2021/08/13 10:30:11;;;;;;;7.20;6.70;;;;;;;26.42;49.17;101840.09;5051851;28;20212;-85
2021/08/13 10:32:38;;;;;;;7.63;7.07;;;;;;;26.45;48.78;101899.66;5051883;28;20217;-84
2021/08/13 10:35:05;;;;;;;7.27;6.67;;;;;;;26.47;49.01;101899.59;5052305;28;20204;-84
2021/08/13 10:37:33;;;;;;;7.37;6.77;;;;;;;26.59;48.74;101897.97;5053197;28;20701;-81
2021/08/13 10:39:59;;;;;;;7.10;6.63;;;;;;;26.71;49.23;101879.28;5052846;28;20233;-81
2021/08/13 10:42:28;;;;;;;8.27;7.67;;;;;;;26.84;50.78;101808.81;5051898;28;20213;-81
2021/08/13 10:44:59;;;;;;;7.43;6.83;;;;;;;26.78;51.37;101804.75;5051513;28;20205;-83
2021/08/13 10:47:29;;;;;;;7.40;6.70;;;;;;;26.62;48.69;101905.81;5051420;28;20669;-82
2021/08/13 10:49:58;;;;;;;6.63;6.23;;;;;;;26.58;49.39;101874.78;5052534;28;20272;-79
2021/08/13 10:52:36;;;;;;;10.03;6.70;;;;;;;26.59;50.37;101845.25;5050466;28;20567;-80
2021/08/13 10:55:04;;;;;;;7.27;6.60;;;;;;;26.59;47.68;101944.38;5051502;28;20207;-80
2021/08/13 10:57:55;;;;;;;6.93;5.77;;;;;;;26.81;48.44;101890.28;5053369;28;20211;-80
2021/08/13 11:00:22;;;;;;;6.43;5.87;;;;;;;27.08;50.28;101836.69;5051089;28;20305;-79
2021/08/13 11:03:17;;;;;;;7.17;6.57;;;;;;;27.14;47.90;101908.66;5049831;28;20251;-80
2021/08/13 11:05:51;;;;;;;7.20;6.70;;;;;;;27.09;47.57;101934.91;5050829;28;20292;-79
2021/08/13 11:08:18;;;;;;;6.90;6.20;;;;;;;27.20;47.82;101928.84;5050578;28;20258;-81
2021/08/13 11:11:03;;;;;;;6.77;6.17;;;;;;;27.26;49.13;101871.31;5052150;28;20206;-82
2021/08/13 11:13:35;;;;;;;7.63;6.93;;;;;;;27.55;50.38;101807.63;5050655;28;20227;-79
2021/08/13 11:16:03;;;;;;;7.53;7.03;;;;;;;27.73;48.29;101873.47;5051814;28;20205;-79
2021/08/13 11:18:34;;;;;;;7.27;6.77;;;;;;;27.77;46.88;101949.25;5051322;28;20221;-81
2021/08/13 11:21:01;;;;;;;7.03;6.43;;;;;;;27.92;47.13;101940.16;5049689;28;20216;-79
2021/08/13 11:23:30;;;;;;;7.23;6.63;;;;;;;28.08;46.39;101960.59;5050480;28;20711;-83
2021/08/13 11:25:57;;;;;;;6.67;6.27;;;;;;;28.01;44.50;101991.50;5050325;28;20204;-79
2021/08/13 11:28:25;;;;;;;7.33;6.83;;;;;;;27.81;45.75;101982.97;5050964;28;20248;-79